Airfield :
LOGIN :

Register | Disclaimer

   EN    FR    IT 

 










Legend :    VFR   Marginal VFR   IFR   Intensive IFR   Very Intensive IFR
Visi :
Ceiling :
>= 8 km
>= 3000ft
5 to 8 km
1000 to 3000 ft
1500m to 5 km
500 to 1000 ft
800 to 1500m
200 to 500 ft
< 800m
< 200 ft
Symbols :   Thunderstorms  Fog  Heavy snow  Heavy precipitations  Wind > 20 kt
SIGMETs :     Misc.  Thunderstorms  Icing  Turbulence  Mountain Waves  Volcanic Ashes







- Airport Elevation : 46 ft
- IATA code : SNN


EINN - Shannon

EXPIRED METARs :
  • 241430Z 27014KT 9999 FEW024 BKN027 BKN060 15/09 Q1014 NOSIG
  • 241400Z 27014KT 9999 SCT027 BKN070 16/09 Q1014 NOSIG
  • 241330Z 27014KT 9999 FEW021 BKN027 16/09 Q1014 NOSIG
  • 241300Z 28015KT 9999 FEW022 BKN028 16/10 Q1014 NOSIG
  • 241230Z 27015KT 9999 FEW021 BKN028 16/11 Q1015 NOSIG
  • 241200Z 27016KT 9999 SCT019 BKN034 16/11 Q1014 NOSIG

TAF TAF EINN
Valid from the 24 at 12:00 until the 25 at 12:00 UTC


241100Z 2412/2512 27016KT 9999 SCT017 BKN034
TEMPO 2412/2416 28015G26KT
BECMG 2418/2421 24006KT
TEMPO 2501/2506 4000 -RADZ BKN005
No reported NOTAMs for that airfield.



MET'MAP, your aeronautical weather chart ! - Copyright ORBIFLY December 2007 - Disclaimer

ORBIFLY MET'MAP TEAM :

Programming & Development : Alexandra Zaïnal
Concept & Development : Baudouin d'Aumeries
Co-Development & Prog : Marc-Olivier Méhu
Technical & hardware support : Manuel Goepfert

Contact : metmap@orbifly.com




SOURCES & CREDITS :

   NOAA